Etusivu
METAR-TAF:

METAR-TAF

Lentoasemat :

El Oued, Algeria

Leveyspiiri: 33-30-47N, Pituuspiiri: 006-46-57E, korkeus merenpinnasta: 62 m

Tämänhetkinen sää

Tämä raportti tehtiin 36 minuuttia sitten, kello 10.00 UTC
Tuuli 21 kn idästä
Lämpötila 25°C
Kosteus 41%
Ilmanpaine 1006 hPa
Näkyvyys: 0600 m
hiekkatuisku

METAR: DAUO 201000Z 10021KT 0600 BLSA NSC 25/11 Q1006

Aika: 11:36 (10:36 UTC)

Sääennuste

Tämä raportti tehtiin 2 tuntia ja 36 minuuttia sitten, kello 08.00 UTC
Ennuste voimassa 20. päivästä klo 09 UTC - 20. päivään klo 18 UTC
Tuuli 20 kn idästä
Näkyvyys: 2000 m
matalaa hiekkatuisku
Ajoittain
20. päivästä klo 09 UTC - 20. päivään klo 14 UTC
Näkyvyys: 0600 m
hiekkatuisku
Todennäköisyys 40% :
Ajoittain
20. päivästä klo 09 UTC - 20. päivään klo 12 UTC
Tuuli 20 kn idästä puuskistuen 30 kn:hen
Näkyvyys: 0100 m
hiekkatuisku

TAF: DAUO 200800Z 2009/2018 10020KT 2000 DRSA NSC TEMPO 2009/2014 0600 BLSA PROB40 TEMPO 2009/2012 10020G30KT 0100 BLSA

Säähavainnot ja -ennusteet yli 4000 lentoasemalta (METAR- ja TAF-raportit).

Käytössä olevat sääasemat on merkitty karttaan keltaisilla ja punaisilla pisteillä.

Aseta hiiri pisteen päälle nähdäksesi sääaseman nimen.

Klikkaa sitten nähdäksesi säähavainnot ja -ennusteet.

Kartan vaihtaminen: klikkaa mustalla rastilla varustettuja vihreitä pisteitä, niin voit zoomata sisään; viivalla varustettua vihreää pistettä, niin voit zoomata ulos tai vihreitä nuolia, niin pääset viereisille kartoille.


METAR-TAF: